Time;durP1;ratioP1;P1;durP2;ratioP2;P2;SDS_P1;SDS_P2;PMS_P1;PMS_P2;Temp;Humidity;BMP_temperature;BMP_pressure;BME280_temperature;BME280_humidity;BME280_pressure;Samples;Min_cycle;Max_cycle;Signal;HPM_P1;HPM_P2
2024/01/07 00:02:00;;;;;;;7.32;4.07;;;9.30;70.70;;;;;;2277760;55;20948;-68
2024/01/07 00:04:26;;;;;;;7.37;4.25;;;9.30;70.80;;;;;;2509800;54;20979;-69
2024/01/07 00:06:53;;;;;;;8.73;4.93;;;9.20;70.80;;;;;;2282920;55;21073;-70
2024/01/07 00:09:19;;;;;;;6.95;3.87;;;9.20;70.80;;;;;;2278426;55;21126;-70
2024/01/07 00:11:45;;;;;;;6.87;4.10;;;9.20;70.90;;;;;;2277929;56;21015;-69
2024/01/07 00:14:12;;;;;;;9.30;4.95;;;9.10;70.80;;;;;;2277735;56;20960;-69
2024/01/07 00:16:43;;;;;;;7.80;4.70;;;9.10;70.90;;;;;;2277672;56;21401;-69
2024/01/07 00:19:09;;;;;;;8.65;3.95;;;9.00;70.80;;;;;;2510116;54;21501;-70
2024/01/07 00:21:35;;;;;;;9.80;5.47;;;9.00;71.00;;;;;;2278317;56;20997;-70
2024/01/07 00:24:02;;;;;;;8.40;4.80;;;9.00;71.10;;;;;;2276621;56;21534;-69
2024/01/07 00:26:28;;;;;;;8.07;4.45;;;8.90;71.10;;;;;;2276471;55;20948;-69
2024/01/07 00:28:56;;;;;;;7.68;4.18;;;8.90;71.20;;;;;;2511162;54;20945;-69
2024/01/07 00:31:22;;;;;;;8.50;4.65;;;8.90;71.30;;;;;;2509434;54;21026;-69
2024/01/07 00:33:49;;;;;;;7.43;4.25;;;8.90;71.40;;;;;;2277579;56;20951;-69
2024/01/07 00:36:16;;;;;;;8.50;4.60;;;8.80;71.40;;;;;;2278635;55;21127;-69
2024/01/07 00:38:42;;;;;;;6.70;3.83;;;8.80;71.50;;;;;;2283177;55;20954;-70
2024/01/07 00:41:13;;;;;;;7.22;3.80;;;8.80;71.60;;;;;;2279210;55;21015;-69
2024/01/07 00:43:40;;;;;;;8.18;4.32;;;8.80;71.60;;;;;;2277887;55;21003;-69
2024/01/07 00:46:07;;;;;;;6.37;3.53;;;8.80;71.70;;;;;;2510102;55;20952;-70
2024/01/07 00:48:33;;;;;;;6.03;3.50;;;8.80;71.70;;;;;;2277104;56;21267;-70
2024/01/07 00:51:00;;;;;;;7.60;4.35;;;8.80;71.70;;;;;;2509444;54;21493;-69
2024/01/07 00:53:27;;;;;;;7.72;4.15;;;8.80;71.70;;;;;;2510348;54;21024;-69
2024/01/07 00:55:53;;;;;;;6.25;3.40;;;8.70;71.60;;;;;;2277572;56;20976;-69
2024/01/07 00:58:20;;;;;;;6.47;3.45;;;8.70;71.70;;;;;;2292936;55;20986;-69
2024/01/07 01:00:46;;;;;;;6.60;3.55;;;8.70;71.70;;;;;;2514028;53;20941;-70
2024/01/07 01:03:12;;;;;;;5.90;3.08;;;8.70;71.70;;;;;;2277607;56;21000;-69
2024/01/07 01:05:39;;;;;;;5.37;2.78;;;8.70;71.70;;;;;;2277323;56;21027;-70
2024/01/07 01:08:05;;;;;;;5.50;2.58;;;8.70;71.70;;;;;;2283908;55;20906;-70
2024/01/07 01:10:31;;;;;;;5.18;2.55;;;8.70;71.70;;;;;;2278226;54;21063;-69
2024/01/07 01:12:58;;;;;;;4.80;2.40;;;8.60;71.50;;;;;;2509547;55;20956;-69
2024/01/07 01:15:24;;;;;;;5.40;3.00;;;8.60;71.50;;;;;;2283776;54;20946;-69
2024/01/07 01:17:53;;;;;;;4.95;2.58;;;8.60;71.50;;;;;;2278872;54;21558;-69
2024/01/07 01:20:20;;;;;;;5.82;3.12;;;8.60;71.50;;;;;;2510762;54;20980;-69
2024/01/07 01:22:47;;;;;;;5.00;2.42;;;8.60;71.50;;;;;;2507113;54;20948;-70
2024/01/07 01:25:13;;;;;;;4.43;2.03;;;8.60;71.60;;;;;;2277827;56;21472;-69
2024/01/07 01:27:40;;;;;;;5.43;2.70;;;8.60;71.70;;;;;;2278751;55;21196;-69
2024/01/07 01:30:07;;;;;;;5.18;2.47;;;8.60;71.90;;;;;;2277011;56;20964;-70
2024/01/07 01:32:42;;;;;;;4.18;2.33;;;8.50;71.90;;;;;;2277710;55;21005;-69
2024/01/07 01:35:09;;;;;;;5.53;2.95;;;8.50;71.80;;;;;;2277282;55;20944;-69
2024/01/07 01:37:37;;;;;;;5.65;3.10;;;8.50;71.80;;;;;;2512562;53;20946;-69
2024/01/07 01:40:04;;;;;;;5.87;3.30;;;8.50;71.70;;;;;;2277519;55;20976;-69
2024/01/07 01:42:30;;;;;;;5.50;3.00;;;8.50;71.60;;;;;;2278284;56;21035;-69
2024/01/07 01:45:01;;;;;;;5.28;2.50;;;8.50;71.70;;;;;;2509538;55;20999;-69
2024/01/07 01:47:30;;;;;;;5.35;2.55;;;8.50;71.70;;;;;;2277990;56;20987;-69
2024/01/07 01:49:57;;;;;;;5.47;2.85;;;8.50;72.30;;;;;;2277540;55;20959;-69
2024/01/07 01:52:24;;;;;;;5.90;3.05;;;8.40;71.50;;;;;;2509926;55;20972;-69
2024/01/07 01:54:50;;;;;;;5.70;2.70;;;8.40;71.50;;;;;;2509282;54;20920;-70
2024/01/07 01:57:20;;;;;;;5.70;3.30;;;8.40;71.50;;;;;;2510290;54;20925;-69
2024/01/07 01:59:46;;;;;;;6.47;3.33;;;8.40;71.50;;;;;;2509428;54;21015;-69
2024/01/07 02:02:13;;;;;;;5.87;2.90;;;8.40;71.50;;;;;;2509532;54;21016;-69
2024/01/07 02:04:41;;;;;;;4.87;2.42;;;8.40;71.60;;;;;;2277679;56;20940;-69
2024/01/07 02:07:07;;;;;;;5.35;2.67;;;8.30;71.60;;;;;;2509746;54;20942;-69
2024/01/07 02:09:34;;;;;;;6.57;3.62;;;8.30;71.70;;;;;;2512565;54;21001;-70
2024/01/07 02:12:02;;;;;;;6.05;3.37;;;8.30;71.70;;;;;;2509443;55;20960;-69
2024/01/07 02:14:28;;;;;;;6.35;3.45;;;8.30;71.80;;;;;;2510502;55;20968;-69
2024/01/07 02:16:56;;;;;;;5.85;3.33;;;8.30;71.80;;;;;;2509868;54;21000;-68
2024/01/07 02:19:22;;;;;;;6.50;3.50;;;8.30;71.90;;;;;;2277994;55;20972;-70
2024/01/07 02:21:50;;;;;;;6.12;3.17;;;8.30;71.90;;;;;;2277982;56;20988;-69
2024/01/07 02:24:18;;;;;;;5.72;3.30;;;8.20;71.80;;;;;;2285555;55;20986;-69
2024/01/07 02:26:45;;;;;;;7.03;3.85;;;8.30;72.10;;;;;;2283433;55;21061;-69
2024/01/07 02:29:11;;;;;;;6.90;3.95;;;8.20;71.90;;;;;;2278479;55;20976;-69
2024/01/07 02:31:38;;;;;;;7.55;3.80;;;8.30;72.10;;;;;;2277599;56;20951;-67
2024/01/07 02:34:04;;;;;;;6.65;3.97;;;8.20;72.10;;;;;;2277419;56;20951;-69
2024/01/07 02:36:30;;;;;;;7.85;4.18;;;8.20;72.10;;;;;;2510528;55;21083;-69
2024/01/07 02:38:57;;;;;;;7.82;4.05;;;8.20;72.10;;;;;;2276620;55;21367;-69
2024/01/07 02:41:25;;;;;;;7.70;4.78;;;8.20;72.10;;;;;;2277393;55;21295;-69
2024/01/07 02:43:52;;;;;;;8.55;5.00;;;8.20;72.10;;;;;;2513420;53;20982;-69
2024/01/07 02:46:20;;;;;;;8.10;4.65;;;8.20;72.10;;;;;;2509514;54;21583;-69
2024/01/07 02:48:46;;;;;;;6.70;4.28;;;8.20;72.20;;;;;;2278087;56;20928;-69
2024/01/07 02:51:13;;;;;;;7.75;4.47;;;8.00;72.10;;;;;;2277611;55;20992;-69
2024/01/07 02:53:39;;;;;;;7.28;4.05;;;8.20;72.30;;;;;;2509704;55;21031;-69
2024/01/07 02:56:05;;;;;;;8.38;5.00;;;8.30;72.50;;;;;;2276973;56;20968;-69
2024/01/07 02:58:34;;;;;;;9.27;4.62;;;8.20;72.30;;;;;;2511657;54;20966;-69
2024/01/07 03:01:01;;;;;;;8.77;4.95;;;8.20;72.30;;;;;;2509583;54;20972;-70
2024/01/07 03:03:28;;;;;;;9.32;5.18;;;8.20;72.40;;;;;;2277816;55;21374;-69
2024/01/07 03:05:54;;;;;;;8.30;4.72;;;8.20;72.40;;;;;;2277265;56;20960;-69
2024/01/07 03:08:21;;;;;;;8.15;4.85;;;8.20;72.40;;;;;;2509507;55;20933;-69
2024/01/07 03:10:47;;;;;;;9.25;4.93;;;8.20;72.40;;;;;;2509278;54;21207;-70
2024/01/07 03:13:13;;;;;;;8.57;4.78;;;8.20;72.40;;;;;;2277266;56;21716;-70
2024/01/07 03:15:40;;;;;;;7.97;4.72;;;8.20;72.40;;;;;;2510225;54;21036;-69
2024/01/07 03:18:07;;;;;;;9.45;5.28;;;8.20;72.30;;;;;;2282534;55;21257;-69
2024/01/07 03:20:33;;;;;;;9.98;5.57;;;8.30;72.40;;;;;;2510436;54;21055;-69
2024/01/07 03:23:00;;;;;;;9.43;5.45;;;8.20;72.20;;;;;;2508585;54;20980;-69
2024/01/07 03:25:27;;;;;;;8.40;4.68;;;8.20;72.30;;;;;;2277765;55;20957;-69
2024/01/07 03:27:53;;;;;;;7.40;4.35;;;8.20;72.30;;;;;;2277140;55;21036;-69
2024/01/07 03:30:29;;;;;;;8.23;3.97;;;8.20;72.30;;;;;;2278043;55;20935;-69
2024/01/07 03:32:56;;;;;;;7.95;4.60;;;8.20;72.20;;;;;;2280383;56;20929;-70
2024/01/07 03:35:24;;;;;;;7.45;4.28;;;8.20;72.30;;;;;;2278396;55;21841;-69
2024/01/07 03:37:50;;;;;;;7.37;4.45;;;8.20;72.30;;;;;;2512962;53;20922;-69
2024/01/07 03:40:19;;;;;;;6.60;3.83;;;8.20;72.30;;;;;;2508327;54;20964;-69
2024/01/07 03:42:45;;;;;;;7.00;4.05;;;8.20;72.20;;;;;;2277669;56;21482;-69
2024/01/07 03:45:12;;;;;;;7.35;3.70;;;8.20;72.20;;;;;;2281239;55;20960;-69
2024/01/07 03:47:38;;;;;;;6.53;3.95;;;8.20;72.20;;;;;;2278122;55;20949;-69
2024/01/07 03:50:05;;;;;;;8.32;4.47;;;8.20;72.20;;;;;;2509521;55;21000;-69
2024/01/07 03:52:32;;;;;;;6.45;4.00;;;8.20;72.20;;;;;;2277917;56;21276;-69
2024/01/07 03:55:05;;;;;;;6.90;3.87;;;8.20;72.20;;;;;;2276885;55;20988;-68
2024/01/07 03:57:33;;;;;;;7.35;4.00;;;8.20;72.20;;;;;;2512503;54;21613;-69
2024/01/07 03:59:59;;;;;;;7.65;4.18;;;8.20;72.20;;;;;;2277372;55;21000;-68
2024/01/07 04:02:25;;;;;;;8.55;4.97;;;8.20;72.20;;;;;;2509739;54;21032;-69
2024/01/07 04:04:52;;;;;;;8.63;4.65;;;8.20;72.10;;;;;;2277539;55;20949;-69
2024/01/07 04:07:19;;;;;;;7.62;4.30;;;8.10;72.00;;;;;;2509768;54;20964;-69
2024/01/07 04:09:47;;;;;;;7.87;4.15;;;8.10;72.10;;;;;;2277976;56;20980;-69
2024/01/07 04:12:14;;;;;;;7.32;4.68;;;8.00;72.00;;;;;;2277602;55;20955;-69
2024/01/07 04:14:43;;;;;;;6.53;3.80;;;8.10;72.10;;;;;;2510695;54;20968;-70
2024/01/07 04:17:12;;;;;;;6.78;3.80;;;8.10;72.10;;;;;;2511026;54;20978;-69
2024/01/07 04:19:39;;;;;;;6.55;3.85;;;8.10;72.10;;;;;;2280037;55;20960;-69
2024/01/07 04:22:05;;;;;;;7.50;3.87;;;8.10;72.10;;;;;;2276956;55;21076;-69
2024/01/07 04:24:34;;;;;;;8.27;3.72;;;8.10;72.10;;;;;;2277785;55;21457;-69
2024/01/07 04:27:02;;;;;;;5.93;3.40;;;8.10;72.10;;;;;;2509386;55;20912;-68
2024/01/07 04:29:29;;;;;;;7.22;3.87;;;8.10;72.10;;;;;;2509824;54;21012;-69
2024/01/07 04:31:57;;;;;;;7.37;3.58;;;8.00;71.90;;;;;;2277101;56;20925;-69
2024/01/07 04:34:25;;;;;;;6.68;3.62;;;8.00;71.90;;;;;;2509661;55;21040;-69
2024/01/07 04:36:53;;;;;;;6.20;3.67;;;8.10;72.00;;;;;;2277185;56;20968;-69
2024/01/07 04:39:19;;;;;;;5.87;3.12;;;8.00;71.90;;;;;;2276849;55;21024;-69
2024/01/07 04:41:45;;;;;;;5.40;2.90;;;8.00;71.90;;;;;;2509135;54;20949;-69
2024/01/07 04:44:12;;;;;;;5.50;2.87;;;8.00;72.00;;;;;;2277634;55;21000;-69
2024/01/07 04:46:38;;;;;;;6.30;2.90;;;8.00;72.00;;;;;;2283418;55;20994;-69
2024/01/07 04:49:08;;;;;;;5.47;2.50;;;8.00;72.10;;;;;;2512409;53;21029;-69
2024/01/07 04:51:37;;;;;;;5.07;2.90;;;8.00;72.10;;;;;;2278292;55;21067;-69
2024/01/07 04:54:03;;;;;;;5.03;2.58;;;8.00;72.20;;;;;;2506486;54;20956;-69
2024/01/07 04:56:30;;;;;;;5.53;2.25;;;8.00;72.20;;;;;;2276430;55;21271;-70
2024/01/07 04:58:56;;;;;;;5.50;3.08;;;8.00;72.30;;;;;;2276658;56;20968;-70
2024/01/07 05:01:27;;;;;;;5.65;3.15;;;8.00;72.20;;;;;;2276531;55;20928;-69
2024/01/07 05:03:56;;;;;;;4.75;2.60;;;8.00;72.20;;;;;;2276029;55;21805;-68
2024/01/07 05:06:23;;;;;;;5.45;2.78;;;8.00;72.20;;;;;;2509308;54;21398;-69
2024/01/07 05:08:49;;;;;;;4.75;2.22;;;8.00;72.20;;;;;;2509536;54;20998;-69
2024/01/07 05:11:17;;;;;;;5.45;2.67;;;8.00;72.20;;;;;;2281506;55;20978;-69
2024/01/07 05:13:43;;;;;;;4.55;2.35;;;8.00;72.20;;;;;;2289640;55;21510;-69
2024/01/07 05:16:21;;;;;;;6.32;2.72;;;8.00;72.20;;;;;;2290944;55;21413;-69
2024/01/07 05:18:48;;;;;;;4.93;2.50;;;8.00;72.20;;;;;;2277797;55;20960;-69
2024/01/07 05:21:16;;;;;;;3.60;1.95;;;8.00;72.20;;;;;;2277088;56;21115;-69
2024/01/07 05:23:42;;;;;;;5.32;2.80;;;8.00;72.40;;;;;;2281630;55;21503;-70
2024/01/07 05:26:08;;;;;;;5.10;2.67;;;8.00;72.30;;;;;;2512905;53;20964;-69
2024/01/07 05:28:36;;;;;;;4.90;2.45;;;8.00;72.30;;;;;;2278073;55;21017;-69
2024/01/07 05:31:03;;;;;;;6.00;2.90;;;8.00;72.40;;;;;;2276548;56;20969;-69
2024/01/07 05:33:29;;;;;;;4.78;2.58;;;8.00;72.40;;;;;;2277863;55;21014;-69
2024/01/07 05:35:56;;;;;;;6.32;2.85;;;8.00;72.30;;;;;;2277572;56;21055;-69
2024/01/07 05:38:23;;;;;;;8.68;3.15;;;8.00;72.20;;;;;;2281311;55;20960;-69
2024/01/07 05:40:50;;;;;;;7.30;3.05;;;8.00;72.10;;;;;;2509711;54;21004;-69
2024/01/07 05:43:16;;;;;;;5.50;2.97;;;8.00;72.10;;;;;;2511807;53;21054;-69
2024/01/07 05:45:42;;;;;;;7.35;3.30;;;8.00;72.10;;;;;;2279863;55;20980;-69
2024/01/07 05:48:09;;;;;;;5.55;2.85;;;8.00;72.10;;;;;;2508968;55;20996;-69
2024/01/07 05:50:35;;;;;;;4.68;2.55;;;7.90;72.00;;;;;;2277599;56;21247;-69
2024/01/07 05:53:01;;;;;;;5.82;2.95;;;7.90;72.00;;;;;;2509434;55;21014;-69
2024/01/07 05:55:28;;;;;;;6.15;3.03;;;8.00;72.10;;;;;;2283727;55;20982;-69
2024/01/07 05:57:55;;;;;;;5.25;2.58;;;8.00;72.10;;;;;;2277169;56;20932;-69
2024/01/07 06:00:23;;;;;;;5.53;2.65;;;7.90;72.10;;;;;;2509672;54;21343;-69
2024/01/07 06:02:49;;;;;;;5.55;2.62;;;7.90;72.10;;;;;;2511969;53;21042;-68
2024/01/07 06:05:15;;;;;;;5.07;2.65;;;7.90;72.10;;;;;;2278804;55;21805;-69
2024/01/07 06:07:42;;;;;;;6.28;2.95;;;7.90;72.20;;;;;;2277837;55;21833;-69
2024/01/07 06:10:08;;;;;;;5.47;2.42;;;7.90;72.30;;;;;;2509450;54;20949;-69
2024/01/07 06:12:35;;;;;;;5.18;2.50;;;7.90;72.30;;;;;;2510467;55;20944;-69
2024/01/07 06:15:01;;;;;;;6.40;3.17;;;7.90;72.40;;;;;;2277700;56;21016;-70
2024/01/07 06:17:27;;;;;;;6.70;2.90;;;7.90;72.40;;;;;;2277281;56;20967;-69
2024/01/07 06:19:54;;;;;;;6.25;2.72;;;7.90;72.30;;;;;;2277737;56;21425;-69
2024/01/07 06:22:20;;;;;;;9.15;3.53;;;7.90;72.30;;;;;;2277172;55;22635;-69
2024/01/07 06:24:46;;;;;;;7.55;3.67;;;8.00;72.40;;;;;;2283367;55;20966;-69
2024/01/07 06:27:13;;;;;;;7.28;3.58;;;7.90;72.30;;;;;;2277689;55;20932;-68
2024/01/07 06:29:39;;;;;;;8.52;3.65;;;8.00;72.50;;;;;;2277548;56;20985;-69
2024/01/07 06:32:06;;;;;;;9.27;3.90;;;8.00;72.50;;;;;;2509071;54;21071;-69
2024/01/07 06:34:33;;;;;;;12.90;4.65;;;8.00;72.40;;;;;;2509690;54;21796;-69
2024/01/07 06:36:59;;;;;;;10.63;5.18;;;8.00;72.40;;;;;;2508833;54;20940;-69
2024/01/07 06:39:26;;;;;;;9.98;5.10;;;8.00;72.40;;;;;;2277601;55;21307;-69
2024/01/07 06:41:53;;;;;;;9.48;4.80;;;8.00;72.30;;;;;;2509727;54;20960;-69
2024/01/07 06:44:20;;;;;;;9.15;4.37;;;8.00;72.30;;;;;;2277161;56;20976;-69
2024/01/07 06:46:46;;;;;;;9.02;5.03;;;8.00;72.30;;;;;;2283070;55;21038;-69
2024/01/07 06:49:12;;;;;;;8.93;4.40;;;8.00;72.30;;;;;;2509363;54;21781;-69
2024/01/07 06:51:38;;;;;;;8.82;4.70;;;7.90;72.30;;;;;;2509080;55;20948;-69
2024/01/07 06:54:05;;;;;;;8.93;4.35;;;7.90;72.30;;;;;;2276792;55;21276;-68
2024/01/07 06:56:32;;;;;;;7.62;3.92;;;7.90;72.30;;;;;;2277167;55;20976;-69
2024/01/07 06:58:58;;;;;;;6.68;3.65;;;8.00;72.40;;;;;;2282739;55;21109;-69
2024/01/07 07:01:24;;;;;;;7.03;3.47;;;7.90;72.40;;;;;;2278765;55;21639;-69
2024/01/07 07:03:51;;;;;;;7.30;3.62;;;8.00;72.40;;;;;;2277385;55;20984;-69
2024/01/07 07:06:18;;;;;;;6.55;3.33;;;7.90;72.30;;;;;;2276749;55;21449;-69
2024/01/07 07:08:45;;;;;;;6.37;3.37;;;7.90;72.20;;;;;;2277548;56;21028;-68
2024/01/07 07:11:11;;;;;;;6.55;3.08;;;7.90;72.20;;;;;;2276748;55;21743;-69
2024/01/07 07:13:38;;;;;;;5.22;2.78;;;7.90;72.90;;;;;;2277981;56;21776;-69
2024/01/07 07:16:05;;;;;;;7.05;2.92;;;7.90;72.20;;;;;;2509745;54;21028;-70
2024/01/07 07:18:31;;;;;;;5.28;2.67;;;8.00;72.30;;;;;;2509182;54;21016;-69
2024/01/07 07:20:57;;;;;;;5.62;3.00;;;7.90;72.20;;;;;;2277431;55;21024;-69
2024/01/07 07:23:25;;;;;;;7.18;3.60;;;8.00;72.30;;;;;;2509300;55;20963;-69
2024/01/07 07:25:52;;;;;;;5.28;3.10;;;7.90;72.30;;;;;;2277893;56;20996;-69
2024/01/07 07:28:20;;;;;;;7.32;3.62;;;7.90;72.30;;;;;;2508635;54;21252;-69
2024/01/07 07:30:46;;;;;;;8.35;4.10;;;8.00;72.40;;;;;;2277067;55;21048;-68
2024/01/07 07:33:15;;;;;;;6.00;3.28;;;7.90;72.30;;;;;;2281500;55;21128;-69
2024/01/07 07:35:42;;;;;;;8.27;3.80;;;8.00;72.50;;;;;;2279665;55;21330;-68
2024/01/07 07:38:08;;;;;;;7.10;4.05;;;7.90;72.40;;;;;;2509047;55;20967;-68
2024/01/07 07:40:34;;;;;;;9.23;4.40;;;8.00;72.50;;;;;;2509367;54;20952;-69
2024/01/07 07:43:00;;;;;;;10.27;4.97;;;8.00;72.40;;;;;;2509378;55;21020;-68
2024/01/07 07:45:27;;;;;;;12.40;5.85;;;8.00;72.40;;;;;;2509731;54;20960;-68
2024/01/07 07:47:53;;;;;;;9.70;4.93;;;8.00;72.40;;;;;;2510069;55;20972;-68
2024/01/07 07:50:19;;;;;;;10.52;6.20;;;8.00;72.30;;;;;;2509050;55;20953;-68
2024/01/07 07:52:46;;;;;;;10.77;6.10;;;8.00;72.30;;;;;;2509880;54;20956;-69
2024/01/07 07:55:13;;;;;;;10.68;5.65;;;8.00;72.20;;;;;;2276794;55;20927;-68
2024/01/07 07:57:40;;;;;;;10.55;5.80;;;8.00;72.30;;;;;;2277640;56;20968;-69
2024/01/07 08:00:12;;;;;;;11.50;6.30;;;7.90;72.20;;;;;;2276846;56;20976;-69
2024/01/07 08:02:39;;;;;;;11.95;5.72;;;8.00;72.30;;;;;;2508885;54;20976;-68
2024/01/07 08:05:07;;;;;;;10.75;5.70;;;7.90;72.30;;;;;;2276889;56;21008;-68
2024/01/07 08:07:33;;;;;;;11.95;6.62;;;8.00;72.40;;;;;;2509156;55;21784;-70
2024/01/07 08:09:59;;;;;;;12.10;6.75;;;7.90;72.30;;;;;;2509988;55;20925;-68
2024/01/07 08:12:27;;;;;;;11.55;6.85;;;7.90;72.40;;;;;;2279653;55;20952;-68
2024/01/07 08:14:54;;;;;;;14.75;7.35;;;7.90;72.30;;;;;;2510151;55;20953;-68
2024/01/07 08:17:20;;;;;;;13.18;7.10;;;8.00;72.40;;;;;;2509062;55;21032;-69
2024/01/07 08:19:47;;;;;;;12.23;6.72;;;7.90;72.30;;;;;;2277381;55;20937;-68
2024/01/07 08:22:14;;;;;;;14.20;7.37;;;7.90;72.30;;;;;;2508817;54;21328;-68
2024/01/07 08:24:41;;;;;;;13.95;8.18;;;7.90;72.40;;;;;;2282680;55;21504;-69
2024/01/07 08:27:09;;;;;;;14.65;7.43;;;7.90;72.40;;;;;;2277928;55;21024;-68
2024/01/07 08:29:42;;;;;;;14.63;6.95;;;7.90;72.40;;;;;;2508665;55;21926;-69
2024/01/07 08:32:08;;;;;;;14.18;7.25;;;7.90;72.50;;;;;;2282796;55;20969;-68
2024/01/07 08:34:36;;;;;;;12.25;6.68;;;7.90;72.50;;;;;;2281780;55;20980;-68
2024/01/07 08:37:03;;;;;;;15.00;7.15;;;7.90;72.60;;;;;;2279481;55;21039;-68
2024/01/07 08:39:29;;;;;;;12.27;7.07;;;7.90;72.60;;;;;;2509360;54;20967;-69
2024/01/07 08:41:56;;;;;;;13.90;7.22;;;7.90;72.70;;;;;;2509412;54;21094;-69
2024/01/07 08:44:23;;;;;;;11.90;7.12;;;7.90;72.70;;;;;;2509157;54;20957;-69
2024/01/07 08:46:50;;;;;;;11.77;6.68;;;8.00;72.70;;;;;;2509328;54;20941;-68
2024/01/07 08:49:16;;;;;;;12.93;7.28;;;7.90;72.70;;;;;;2508406;54;21688;-69
2024/01/07 08:51:43;;;;;;;13.57;7.37;;;7.90;72.70;;;;;;2512156;53;21033;-69
2024/01/07 08:54:09;;;;;;;12.93;7.35;;;8.00;72.80;;;;;;2277943;55;21746;-68
2024/01/07 08:56:36;;;;;;;11.52;6.85;;;8.00;72.80;;;;;;2277427;55;20937;-69
2024/01/07 08:59:04;;;;;;;14.50;7.97;;;8.00;72.80;;;;;;2275643;56;20980;-69
2024/01/07 09:01:33;;;;;;;12.43;7.43;;;8.00;72.80;;;;;;2281709;55;20961;-68
2024/01/07 09:03:59;;;;;;;12.27;7.20;;;8.00;72.70;;;;;;2279003;55;21091;-68
2024/01/07 09:06:26;;;;;;;12.35;7.10;;;8.00;72.70;;;;;;2275331;56;21819;-69
2024/01/07 09:08:52;;;;;;;11.05;6.62;;;8.00;72.70;;;;;;2509072;54;21289;-68
2024/01/07 09:11:19;;;;;;;12.70;7.12;;;8.00;72.70;;;;;;2508322;54;21252;-68
2024/01/07 09:13:48;;;;;;;11.82;7.07;;;8.00;72.70;;;;;;2275907;55;20967;-70
2024/01/07 09:16:15;;;;;;;10.73;6.55;;;8.00;72.70;;;;;;2509060;54;20999;-69
2024/01/07 09:18:43;;;;;;;11.68;6.60;;;8.00;72.70;;;;;;2276656;56;21197;-69
2024/01/07 09:21:10;;;;;;;12.37;6.68;;;8.00;72.70;;;;;;2276772;55;20944;-68
2024/01/07 09:23:36;;;;;;;10.07;6.12;;;8.00;72.80;;;;;;2276982;55;20964;-68
2024/01/07 09:26:02;;;;;;;10.70;5.55;;;8.00;72.80;;;;;;2276996;55;20945;-69
2024/01/07 09:28:29;;;;;;;11.85;6.57;;;8.00;72.80;;;;;;2276961;55;20944;-69
2024/01/07 09:30:55;;;;;;;12.65;6.65;;;8.00;72.80;;;;;;2276885;56;20992;-68
2024/01/07 09:33:23;;;;;;;9.50;4.93;;;8.00;72.80;;;;;;2276151;55;21059;-68
2024/01/07 09:35:54;;;;;;;9.15;5.18;;;8.10;72.90;;;;;;2509786;55;20976;-69
2024/01/07 09:38:27;;;;;;;9.30;5.15;;;8.10;72.90;;;;;;2276913;55;21452;-68
2024/01/07 09:40:53;;;;;;;8.48;4.85;;;8.10;72.90;;;;;;2513548;54;21314;-68
2024/01/07 09:43:20;;;;;;;10.38;4.80;;;8.10;72.90;;;;;;2281008;56;21504;-68
2024/01/07 09:45:47;;;;;;;8.65;4.97;;;8.20;73.00;;;;;;2291772;54;21057;-69
2024/01/07 09:48:15;;;;;;;9.27;5.12;;;8.10;72.90;;;;;;2509171;54;20953;-69
2024/01/07 09:50:41;;;;;;;8.77;5.50;;;8.10;73.60;;;;;;2277861;55;20953;-69
2024/01/07 09:53:15;;;;;;;9.98;5.30;;;8.10;72.90;;;;;;2508989;54;21750;-68
2024/01/07 09:57:05;;;;;;;11.30;5.20;;;8.10;72.80;;;;;;2283677;55;20982;-68
2024/01/07 09:59:32;;;;;;;8.90;4.30;;;8.10;72.30;;;;;;2512822;54;21019;-68
2024/01/07 10:01:58;;;;;;;8.30;4.55;;;8.20;72.80;;;;;;2487133;55;21600;-68
2024/01/07 10:04:27;;;;;;;7.60;4.40;;;8.10;72.80;;;;;;2509186;54;20984;-68
2024/01/07 10:06:54;;;;;;;10.02;5.43;;;8.20;72.90;;;;;;2276729;55;20948;-69
2024/01/07 10:09:23;;;;;;;9.52;5.10;;;8.20;73.00;;;;;;2277332;56;21738;-69
2024/01/07 10:11:52;;;;;;;10.40;5.47;;;8.20;72.90;;;;;;2283560;55;21029;-69
2024/01/07 10:14:22;;;;;;;9.88;5.75;;;8.20;72.90;;;;;;2278297;55;21032;-69
2024/01/07 10:16:50;;;;;;;11.02;6.32;;;8.20;72.80;;;;;;2510088;54;22059;-70
2024/01/07 10:19:22;;;;;;;11.38;6.40;;;8.00;72.60;;;;;;2277605;55;20999;-68
2024/01/07 10:22:04;;;;;;;11.85;6.10;;;8.20;72.80;;;;;;2278310;55;20955;-68
2024/01/07 10:24:40;;;;;;;11.98;6.20;;;8.20;72.80;;;;;;2281435;55;20946;-68
2024/01/07 10:27:07;;;;;;;11.95;5.97;;;8.20;72.70;;;;;;2510228;53;20971;-68
2024/01/07 10:29:33;;;;;;;11.90;5.57;;;8.20;72.80;;;;;;2511185;53;20956;-68
2024/01/07 10:32:05;;;;;;;10.30;5.22;;;8.20;72.90;;;;;;2507496;54;20955;-69
2024/01/07 10:34:31;;;;;;;11.05;5.37;;;8.20;72.90;;;;;;2508880;54;21031;-68
2024/01/07 10:36:59;;;;;;;12.13;6.60;;;8.20;72.90;;;;;;2509438;55;21087;-69
2024/01/07 10:39:25;;;;;;;10.40;5.95;;;8.20;72.90;;;;;;2277277;55;21267;-69
2024/01/07 10:41:58;;;;;;;10.15;5.60;;;8.20;72.80;;;;;;2278067;55;20960;-68
2024/01/07 10:44:31;;;;;;;11.10;5.85;;;8.20;72.80;;;;;;2277531;56;20936;-68
2024/01/07 10:46:58;;;;;;;9.82;5.57;;;8.20;72.90;;;;;;2278112;56;21083;-68
2024/01/07 10:49:28;;;;;;;8.10;4.87;;;8.20;73.00;;;;;;2509282;54;20993;-69
2024/01/07 10:52:06;;;;;;;8.63;5.00;;;8.30;73.20;;;;;;2276732;55;21069;-68
2024/01/07 10:54:33;;;;;;;9.90;5.80;;;8.30;73.20;;;;;;2508816;54;21008;-69
2024/01/07 10:57:47;;;;;;;8.38;4.82;;;8.30;73.20;;;;;;2277000;55;20988;-68
2024/01/07 11:00:18;;;;;;;7.35;4.50;;;8.30;72.70;;;;;;2277177;56;21023;-68
2024/01/07 11:06:20;;;;;;;6.95;3.92;;;8.40;72.60;;;;;;2278206;55;20096;-69
2024/01/07 11:08:57;;;;;;;7.65;4.32;;;8.40;73.00;;;;;;2277835;55;21004;-69
2024/01/07 11:11:25;;;;;;;7.55;4.03;;;8.40;73.30;;;;;;2282964;55;21458;-69
2024/01/07 11:13:52;;;;;;;7.65;4.47;;;8.40;73.50;;;;;;2510083;54;21548;-68
2024/01/07 11:16:41;;;;;;;7.60;4.35;;;8.50;73.60;;;;;;2276305;56;20937;-69
2024/01/07 11:19:07;;;;;;;7.32;4.62;;;8.50;73.40;;;;;;2509812;54;21441;-68
2024/01/07 11:21:35;;;;;;;8.77;5.22;;;8.50;73.60;;;;;;2283106;54;21509;-69
2024/01/07 11:24:02;;;;;;;9.15;5.40;;;8.60;73.80;;;;;;2282680;55;21539;-68
2024/01/07 11:26:30;;;;;;;8.48;5.07;;;8.60;73.80;;;;;;2278763;55;21024;-68
2024/01/07 11:28:57;;;;;;;8.20;4.93;;;8.60;73.80;;;;;;2508726;54;21000;-68
2024/01/07 11:31:47;;;;;;;7.95;4.97;;;8.70;73.90;;;;;;2512254;53;20974;-69
2024/01/07 11:34:47;;;;;;;8.75;4.82;;;8.70;73.50;;;;;;2509806;54;21308;-68
2024/01/07 11:37:13;;;;;;;7.32;4.75;;;8.80;73.40;;;;;;2511120;53;20998;-68
2024/01/07 11:39:46;;;;;;;7.87;5.05;;;8.80;73.70;;;;;;2279106;55;20944;-69
2024/01/07 11:42:12;;;;;;;;;;;8.80;73.60;;;;;;2281273;56;21489;-69
2024/01/07 11:44:45;;;;;;;8.88;5.03;;;8.80;72.80;;;;;;2276786;56;20169;-68
2024/01/07 11:47:11;;;;;;;8.05;5.15;;;8.90;73.40;;;;;;2509113;54;20996;-68
2024/01/07 11:49:39;;;;;;;9.75;5.70;;;8.90;73.40;;;;;;2509429;54;20960;-68
2024/01/07 11:52:10;;;;;;;10.55;6.35;;;8.90;73.20;;;;;;2509401;54;20947;-68
2024/01/07 11:54:39;;;;;;;11.18;6.32;;;8.90;73.10;;;;;;2277093;56;21852;-68
2024/01/07 11:57:09;;;;;;;10.27;6.15;;;8.90;73.10;;;;;;2509778;54;21019;-68
2024/01/07 11:59:36;;;;;;;9.93;6.35;;;8.90;73.10;;;;;;2509189;54;21837;-68
2024/01/07 12:02:04;;;;;;;12.50;6.55;;;8.90;73.00;;;;;;2509591;55;20952;-68
2024/01/07 12:04:33;;;;;;;10.48;6.57;;;8.90;72.90;;;;;;2509051;54;20941;-68
2024/01/07 12:07:01;;;;;;;11.50;6.40;;;8.90;72.80;;;;;;2277616;56;21012;-68
2024/01/07 12:09:27;;;;;;;9.82;6.10;;;8.90;72.90;;;;;;2510145;55;21035;-68
2024/01/07 12:11:54;;;;;;;12.30;7.12;;;8.90;72.90;;;;;;2287644;55;20998;-68
2024/01/07 12:14:20;;;;;;;12.02;7.15;;;8.90;72.80;;;;;;2522893;53;20946;-68
2024/01/07 12:16:47;;;;;;;10.80;6.87;;;8.90;72.80;;;;;;2509640;54;20932;-69
2024/01/07 12:19:13;;;;;;;12.55;7.45;;;8.90;72.70;;;;;;2277649;55;20976;-68
2024/01/07 12:21:40;;;;;;;12.18;7.15;;;8.90;72.60;;;;;;2277341;55;21304;-70
2024/01/07 12:24:06;;;;;;;11.43;7.00;;;8.90;72.60;;;;;;2277299;56;21036;-68
2024/01/07 12:26:37;;;;;;;11.90;6.87;;;8.90;72.60;;;;;;2509591;54;20924;-68
2024/01/07 12:29:03;;;;;;;11.48;7.03;;;8.90;72.70;;;;;;2509601;54;20936;-68
2024/01/07 12:31:33;;;;;;;10.10;6.82;;;8.90;72.70;;;;;;2297219;55;21875;-68
2024/01/07 12:33:59;;;;;;;11.27;6.80;;;8.90;72.70;;;;;;2278161;55;21068;-68
2024/01/07 12:36:26;;;;;;;12.20;7.10;;;8.90;72.70;;;;;;2508356;55;20995;-69
2024/01/07 12:38:56;;;;;;;11.63;6.93;;;8.90;72.80;;;;;;2276917;55;20948;-68
2024/01/07 12:41:25;;;;;;;11.12;6.28;;;8.90;72.70;;;;;;2277125;55;21047;-68
2024/01/07 12:43:51;;;;;;;12.40;7.07;;;8.90;72.70;;;;;;2509374;54;20952;-68
2024/01/07 12:46:17;;;;;;;11.63;6.62;;;8.90;72.70;;;;;;2508744;54;21037;-68
2024/01/07 12:48:46;;;;;;;11.93;6.97;;;8.90;72.70;;;;;;2276886;56;20936;-68
2024/01/07 12:51:13;;;;;;;11.48;6.37;;;8.90;72.80;;;;;;2276770;56;21024;-68
2024/01/07 12:53:39;;;;;;;11.35;6.45;;;8.90;72.80;;;;;;2276494;55;21008;-68
2024/01/07 12:56:06;;;;;;;10.07;6.30;;;8.90;72.70;;;;;;2276715;56;21016;-68
2024/01/07 12:58:32;;;;;;;12.20;6.72;;;8.90;72.70;;;;;;2276854;55;21011;-69
2024/01/07 13:01:00;;;;;;;11.02;6.93;;;8.90;72.60;;;;;;2276525;55;21102;-68
2024/01/07 13:03:27;;;;;;;10.93;6.57;;;8.90;72.60;;;;;;2511333;54;20987;-69